Latest Coastal Weather Observations for Green Cape

IDN60701

Issued at 3:55 am EDT Friday 31 October 2014 (issued every 10 minutes, with the page automatically refreshed every 10 minutes)

About coastal observations | Map of coastal stations | Coastal observations for NSW | Marine services | Other Formats
Station Details ID: 069137 Name: GREEN CAPE AWS Lat: -37.26 Lon: 150.05 Height: 19.4 m
Data from the previous 72 hours. | See also: Recent months at Green Cape
Date/Time
EDT
Temp

°C
Wind Pressure Rain
since 9am
mm
Weather Cloud Vis
km
Sea
Height
m
Swell
Dir
 
Speed
knots
Gust
knots
hPa Trend Height
m
Period
s
Dir
31/03:30am 15.3 E 2 3 1013.1 - 0.0 - - - - - - -
31/03:00am 15.3 ENE 3 4 1013.2 - 0.0 - - - - - - -
31/02:30am 15.1 ENE 2 4 1013.7 - 0.0 - - - - - - -
31/02:00am 14.8 CALM 0 0 1013.8 - 0.0 - - - - - - -
31/01:30am 14.5 CALM 0 0 1014.2 - 0.0 - - - - - - -
31/01:00am 14.2 CALM 0 0 1014.4 - 0.0 - - - - - - -
31/12:30am 14.1 CALM 0 0 1014.6 - 0.0 - - - - - - -
31/12:00am 14.5 S 4 6 1014.9 - 0.0 - - - - - - -
 
Date/Time
EDT
Temp

°C
Wind Pressure Rain
since 9am
mm
Weather Cloud Vis
km
Sea
Height
m
Swell
Dir
 
Speed
knots
Gust
knots
hPa Trend Height
m
Period
s
Dir
30/11:30pm 14.7 S 5 7 1015.0 - 0.0 - - - - - - -
30/11:00pm 14.9 S 6 7 1015.0 - 0.0 - - - - - - -
30/10:30pm 14.9 S 7 9 1015.3 - 0.0 - - - - - - -
30/10:00pm 15.2 S 9 11 1015.2 - 0.0 - - - - - - -
30/09:30pm 15.3 S 10 11 1015.1 - 0.0 - - - - - - -
30/09:00pm 15.4 S 11 13 1014.8 - 0.0 - - - - - - -
30/08:30pm 15.6 S 14 17 1014.6 - 0.0 - - - - - - -
30/08:00pm 15.8 S 14 16 1014.3 - 0.0 - - - - - - -
30/07:30pm 16.0 S 14 16 1013.9 - 0.0 - - - - - - -
30/07:00pm 16.5 S 13 14 1013.5 - 0.0 - - - - - - -
30/06:30pm 16.8 S 13 14 1013.2 - 0.0 - - - - - - -
30/06:00pm 17.2 S 14 17 1012.9 - 0.0 - - - - - - -
30/05:30pm 17.5 S 13 15 1012.6 - 0.0 - - - - - - -
30/05:00pm 18.3 S 11 13 1012.3 - 0.0 - - - - - - -
30/04:30pm 18.9 S 10 11 1012.2 - 0.0 - - - - - - -
30/04:00pm 19.0 S 13 14 1012.0 - 0.0 - - - - - - -
30/03:30pm 19.5 SSE 11 13 1012.1 - 0.0 - - - - - - -
30/03:00pm 20.0 SSE 10 11 1012.3 - 0.0 - - - - - - -
30/02:30pm 20.5 SSE 8 9 1012.5 - 0.0 - - - - - - -
30/02:00pm 20.5 SSE 9 11 1012.6 - 0.0 - - - - - - -
30/01:30pm 20.8 SSE 10 11 1012.7 - 0.0 - - - - - - -
30/01:00pm 21.1 SSE 8 9 1013.0 - 0.0 - - - - - - -
30/12:30pm 21.4 SSE 7 7 1013.3 - 0.0 - - - - - - -
30/12:00pm 21.0 SSE 7 8 1013.4 - 0.0 - - - - - - -
30/11:30am 20.8 SSE 6 7 1013.7 - 0.0 - - - - - - -
30/11:00am 20.7 SSE 5 6 1014.0 - 0.0 - - - - - - -
30/10:30am 20.6 S 5 7 1014.1 - 0.0 - - - - - - -
30/10:00am 20.2 S 4 5 1014.1 - 0.0 - - - - - - -
30/09:30am 16.7 WSW 3 4 1014.1 - 0.0 - - - - - - -
30/09:00am 15.7 W 3 4 1014.3 - 0.0 - - - - - - -
30/08:30am 14.9 W 5 6 1014.5 - 0.0 - - - - - - -
30/08:00am 14.0 W 3 4 1014.4 - 0.0 - - - - - - -
30/07:30am 13.5 W 5 6 1014.2 - 0.0 - - - - - - -
30/07:00am 13.4 W 4 5 1014.2 - 0.0 - - - - - - -
30/06:30am 13.4 W 3 4 1014.0 - 0.0 - - - - - - -
30/06:00am 13.4 W 4 5 1013.7 - 0.0 - - - - - - -
30/05:30am 14.1 NNW 1 3 1013.8 - 0.0 - - - - - - -
30/05:00am 13.6 CALM 0 0 1013.8 - 0.0 - - - - - - -
30/04:30am 13.8 CALM 0 0 1013.9 - 0.0 - - - - - - -
30/04:00am 14.3 CALM 0 0 1014.2 - 0.0 - - - - - - -
30/03:30am 14.9 CALM 0 0 1014.5 - 0.0 - - - - - - -
30/03:00am 14.9 CALM 0 0 1014.7 - 0.0 - - - - - - -
30/02:30am 15.0 CALM 0 0 1014.9 - 0.0 - - - - - - -
30/02:00am 14.9 CALM 0 0 1015.3 - 0.0 - - - - - - -
30/01:30am 14.9 CALM 0 1 1015.8 - 0.0 - - - - - - -
30/01:00am 15.1 CALM 0 1 1016.1 - 0.0 - - - - - - -
30/12:30am 15.5 E 1 4 1016.3 - 0.0 - - - - - - -
30/12:00am 15.5 SSE 3 4 1016.4 - 0.0 - - - - - - -
 
Date/Time
EDT
Temp

°C
Wind Pressure Rain
since 9am
mm
Weather Cloud Vis
km
Sea
Height
m
Swell
Dir
 
Speed
knots
Gust
knots
hPa Trend Height
m
Period
s
Dir
29/11:30pm 15.5 CALM 0 0 1016.6 - 0.0 - - - - - - -
29/11:00pm 15.5 CALM 0 0 1016.8 - 0.0 - - - - - - -
29/10:30pm 15.5 CALM 0 0 1017.0 - 0.0 - - - - - - -
29/10:00pm 15.3 CALM 0 0 1017.2 - 0.0 - - - - - - -
29/09:30pm 15.4 ESE 1 2 1017.2 - 0.0 - - - - - - -
29/09:00pm 15.4 CALM 0 0 1017.0 - 0.0 - - - - - - -
29/08:30pm 15.3 E 1 3 1016.7 - 0.0 - - - - - - -
29/08:00pm 15.1 E 2 3 1016.4 - 0.0 - - - - - - -
29/07:30pm 15.1 E 2 3 1016.2 - 0.0 - - - - - - -
29/07:00pm 15.4 E 3 3 1015.9 - 0.0 - - - - - - -
29/06:30pm 16.1 SSE 5 6 1015.8 - 0.0 - - - - - - -
29/06:00pm 16.5 SSE 7 9 1015.6 - 0.0 - - - - - - -
29/05:30pm 16.8 SSE 9 10 1015.5 - 0.0 - - - - - - -
29/05:00pm 17.0 SSE 11 13 1015.2 - 0.0 - - - - - - -
29/04:30pm 17.3 SSE 12 14 1015.1 - 0.0 - - - - - - -
29/04:00pm 17.4 SSE 13 16 1015.1 - 0.0 - - - - - - -
29/03:30pm 17.7 SSE 15 18 1015.0 - 0.0 - - - - - - -
29/03:00pm 17.6 S 17 19 1015.0 - 0.0 - - - - - - -
29/02:30pm 17.8 S 19 21 1015.0 - 0.0 - - - - - - -
29/02:00pm 18.2 S 18 20 1015.2 - 0.0 - - - - - - -
29/01:30pm 18.6 S 17 19 1015.6 - 0.0 - - - - - - -
29/01:00pm 21.5 S 7 10 1016.1 - 0.0 - - - - - - -
29/12:30pm 19.3 SSW 5 7 1016.4 - 0.0 - - - - - - -
29/12:00pm 18.6 SW 7 10 1016.9 - 0.0 - - - - - - -
29/11:00am 16.9 SW 10 13 1017.4 - 0.0 - - - - - - -
29/10:30am 16.1 SW 13 16 1017.4 - 0.0 - - - - - - -
29/10:00am 15.7 SW 15 18 1017.7 - 0.0 - - - - - - -
29/09:30am 15.1 WSW 15 21 1017.6 - 0.0 - - - - - - -
29/09:00am 14.4 WSW 14 23 1017.4 - 0.0 - - - - - - -
29/08:30am 14.2 WSW 14 19 1017.4 - 0.0 - - - - - - -
29/08:00am 13.6 WSW 14 18 1017.1 - 0.0 - - - - - - -
29/07:30am 13.4 WSW 12 16 1016.7 - 0.0 - - - - - - -
29/07:00am 13.3 WSW 13 18 1016.5 - 0.0 - - - - - - -
29/06:30am 13.3 WSW 12 15 1016.2 - 0.0 - - - - - - -
29/06:00am 13.3 WSW 14 19 1015.9 - 0.0 - - - - - - -
29/05:30am 13.4 WSW 16 20 1015.5 - 0.0 - - - - - - -
29/05:00am 13.5 WSW 15 20 1014.9 - 0.0 - - - - - - -
29/04:30am 13.7 WSW 11 14 1014.7 - 0.0 - - - - - - -
29/04:00am 13.7 SW 14 16 1014.3 - 0.0 - - - - - - -
29/03:30am 13.9 SW 15 20 1014.1 - 0.0 - - - - - - -
29/03:00am 14.0 WSW 14 20 1014.2 - 0.0 - - - - - - -
29/02:30am 13.9 WSW 14 19 1014.2 - 0.0 - - - - - - -
29/02:00am 13.8 WSW 12 17 1014.2 - 0.0 - - - - - - -
29/01:30am 13.7 WSW 11 13 1014.3 - 0.0 - - - - - - -
29/01:00am 13.8 SW 15 18 1014.1 - 0.0 - - - - - - -
29/12:30am 14.3 SW 17 21 1013.8 - 0.0 - - - - - - -
29/12:00am 14.4 SW 20 25 1013.4 - 0.0 - - - - - - -
 
Date/Time
EDT
Temp

°C
Wind Pressure Rain
since 9am
mm
Weather Cloud Vis
km
Sea
Height
m
Swell
Dir
 
Speed
knots
Gust
knots
hPa Trend Height
m
Period
s
Dir
28/11:30pm 14.6 SW 19 24 1013.2 - 0.0 - - - - - - -
28/11:00pm 14.6 SW 17 21 1012.8 - 0.0 - - - - - - -
28/10:30pm 14.6 SW 18 26 1012.4 - 0.0 - - - - - - -
28/10:00pm 14.8 SW 17 23 1012.1 - 0.0 - - - - - - -
28/09:30pm 15.1 SW 18 22 1011.8 - 0.0 - - - - - - -
28/09:00pm 15.6 SW 19 24 1011.3 - 0.0 - - - - - - -
28/08:30pm 16.6 SW 19 23 1010.5 - 0.0 - - - - - - -
28/08:00pm 17.2 WSW 13 18 1010.2 - 0.0 - - - - - - -
28/07:30pm 17.5 WSW 14 21 1009.6 - 0.0 - - - - - - -
28/07:00pm 18.1 WSW 12 18 1009.1 - 0.0 - - - - - - -
28/06:30pm 19.3 WNW 3 6 1008.5 - 0.0 - - - - - - -
28/06:00pm 18.3 N 6 8 1007.7 - 0.0 - - - - - - -
28/05:30pm 19.1 N 6 8 1007.4 - 0.0 - - - - - - -
28/05:00pm 20.1 N 7 8 1007.0 - 0.0 - - - - - - -
28/04:30pm 20.5 NNE 10 11 1006.6 - 0.0 - - - - - - -
28/04:00pm 20.5 NNE 9 11 1006.5 - 0.0 - - - - - - -
28/03:30pm 20.5 NE 8 10 1006.5 - 0.0 - - - - - - -
28/03:00pm 19.9 ENE 8 10 1006.4 - 0.0 - - - - - - -
28/02:30pm 19.6 E 7 8 1006.5 - 0.0 - - - - - - -
28/02:00pm 20.1 ENE 7 8 1006.5 - 0.0 - - - - - - -
28/01:30pm 21.2 ENE 4 7 1006.5 - 0.0 - - - - - - -
28/01:00pm 20.9 NE 5 5 1006.6 - 0.0 - - - - - - -
28/12:30pm 20.4 NE 5 6 1006.6 - 0.0 - - - - - - -
28/12:00pm 20.7 NNE 4 5 1007.0 - 0.0 - - - - - - -
28/11:30am 20.0 N 4 5 1007.2 - 0.0 - - - - - - -
28/11:00am 18.0 N 9 11 1007.2 - 0.0 - - - - - - -
28/10:30am 17.5 N 9 11 1007.5 - 0.0 - - - - - - -
28/10:00am 17.0 N 9 11 1008.0 - 0.0 - - - - - - -
28/09:30am 16.2 N 10 12 1008.0 - 0.0 - - - - - - -
28/09:00am 15.7 N 11 13 1008.2 - 7.0 - - - - - - -
28/08:30am 15.0 N 5 7 1008.7 - 7.0 - - - - - - -
28/08:00am 14.2 N 6 8 1008.9 - 7.0 - - - - - - -
28/07:30am 12.5 WNW 4 6 1008.6 - 7.0 - - - - - - -
28/07:00am 10.9 W 6 7 1008.8 - 7.0 - - - - - - -
28/06:30am 10.9 W 7 8 1008.8 - 7.0 - - - - - - -
28/06:00am 11.3 W 7 8 1008.4 - 7.0 - - - - - - -
28/05:30am 11.1 W 7 8 1008.2 - 7.0 - - - - - - -
28/05:00am 11.3 W 7 8 1008.1 - 7.0 - - - - - - -
28/04:30am 12.4 SW 9 10 1008.0 - 7.0 - - - - - - -
28/04:00am 12.4 WSW 5 8 1008.2 - 7.0 - - - - - - -

Other Formats:

Comma delimited format used in spreadsheet applications
http://www.bom.gov.au/fwo/IDN60701/IDN60701.94934.axf

JavaScript Object Notation format (JSON) in row-major order
http://www.bom.gov.au/fwo/IDN60701/IDN60701.94934.json